Time;durP1;ratioP1;P1;durP2;ratioP2;P2;SDS_P1;SDS_P2;PMS_P1;PMS_P2;Temp;Humidity;BMP_temperature;BMP_pressure;BME280_temperature;BME280_humidity;BME280_pressure;Samples;Min_cycle;Max_cycle;Signal;HPM_P1;HPM_P2
2022/01/21 09:59:01;;;;;;;9.40;9.00;;;;;;;1.13;63.44;92997.66;5026686;28;20579;-81
2022/01/21 10:01:27;;;;;;;9.63;9.20;;;;;;;0.79;62.95;92882.53;5019632;28;20246;-82
2022/01/21 10:03:53;;;;;;;12.90;12.13;;;;;;;1.33;63.57;92936.53;4986319;28;20184;-82
2022/01/21 10:06:23;;;;;;;11.77;10.97;;;;;;;1.88;65.16;92990.50;4986157;28;20196;-81
2022/01/21 10:08:50;;;;;;;13.80;12.87;;;;;;;1.81;67.19;92987.22;4986973;28;20192;-81
2022/01/21 10:11:18;;;;;;;13.57;12.60;;;;;;;1.90;65.19;92979.00;4985716;28;20266;-80
2022/01/21 10:13:47;;;;;;;14.20;13.20;;;;;;;1.89;69.48;92989.50;4986686;28;20187;-74
2022/01/21 10:16:13;;;;;;;14.23;13.13;;;;;;;1.91;69.25;92990.88;4985481;28;20195;-75
2022/01/21 10:18:58;;;;;;;14.90;13.63;;;;;;;1.98;70.37;92957.34;5001595;28;20207;-75
2022/01/21 10:21:30;;;;;;;12.97;12.07;;;;;;;2.23;67.25;92975.97;4985637;28;20290;-74
2022/01/21 10:24:04;;;;;;;13.77;12.63;;;;;;;2.24;65.61;92954.41;4984934;28;20196;-76
2022/01/21 10:26:29;;;;;;;12.77;11.73;;;;;;;2.38;66.04;92976.38;4985085;28;20234;-75
2022/01/21 10:28:55;;;;;;;11.90;11.07;;;;;;;1.52;67.17;92966.41;4984439;28;20200;-75
2022/01/21 10:31:21;;;;;;;11.20;10.60;;;;;;;1.62;68.73;92950.44;4984755;28;20196;-75
2022/01/21 10:33:52;;;;;;;11.23;10.57;;;;;;;1.38;69.40;92964.97;4986263;28;20204;-76
2022/01/21 10:36:27;;;;;;;11.17;10.30;;;;;;;1.65;68.41;92960.28;4984515;28;20207;-77
2022/01/21 10:39:08;;;;;;;12.47;11.40;;;;;;;1.91;67.37;92941.19;4985943;28;20218;-81
2022/01/21 10:41:38;;;;;;;12.23;11.37;;;;;;;1.81;65.62;92969.19;4983967;28;20252;-79
2022/01/21 10:44:15;;;;;;;12.60;11.40;;;;;;;1.76;67.52;92946.69;4983927;28;20235;-79
2022/01/21 10:46:46;;;;;;;17.70;15.80;;;;;;;1.85;65.70;92960.06;4985462;28;20224;-79
2022/01/21 10:49:14;;;;;;;13.90;12.80;;;;;;;1.95;65.10;92937.16;4984861;28;20256;-86
2022/01/21 10:51:47;;;;;;;13.87;12.50;;;;;;;2.23;65.47;92950.22;4985177;28;20339;-81
2022/01/21 10:54:15;;;;;;;12.53;11.43;;;;;;;1.59;63.40;92933.66;4985188;28;20192;-86
2022/01/21 10:56:40;;;;;;;13.77;12.70;;;;;;;1.64;63.21;92944.09;4985433;28;20255;-84
2022/01/21 10:59:06;;;;;;;11.80;11.10;;;;;;;1.98;62.58;92944.47;5005832;28;20230;-82
2022/01/21 11:01:31;;;;;;;12.03;11.13;;;;;;;2.01;63.61;92944.03;5009222;28;20237;-86
2022/01/21 11:03:57;;;;;;;12.77;11.63;;;;;;;2.14;61.93;92933.53;5026109;28;20241;-86
2022/01/21 11:06:26;;;;;;;13.33;12.50;;;;;;;2.09;62.86;92951.41;5024265;28;20214;-84
2022/01/21 11:09:15;;;;;;;12.47;11.57;;;;;;;2.66;75.82;92915.47;5018379;28;20207;-85
2022/01/21 11:11:42;;;;;;;10.77;10.17;;;;;;;2.41;61.12;92925.19;5011026;28;20231;-79
2022/01/21 11:14:13;;;;;;;11.80;11.13;;;;;;;2.31;61.43;92921.59;5008140;28;20200;-79
2022/01/21 11:16:42;;;;;;;11.23;10.63;;;;;;;2.34;61.75;92923.72;5009670;28;20237;-78
2022/01/21 11:19:11;;;;;;;9.83;9.27;;;;;;;2.05;60.59;92897.03;5009750;28;20180;-81
2022/01/21 11:21:46;;;;;;;10.93;10.33;;;;;;;1.79;61.02;92922.34;5010737;28;20266;-83
2022/01/21 11:24:12;;;;;;;13.10;12.13;;;;;;;1.73;60.81;92934.25;5011588;28;20222;-80
2022/01/21 11:26:39;;;;;;;12.03;11.17;;;;;;;1.49;61.38;92933.34;5008689;28;20245;-83
2022/01/21 11:29:06;;;;;;;12.47;11.67;;;;;;;1.53;62.70;92931.16;5012113;28;20287;-81
2022/01/21 11:31:32;;;;;;;13.10;12.07;;;;;;;1.06;61.71;92934.47;5009918;28;20336;-81
2022/01/21 11:33:58;;;;;;;12.00;11.07;;;;;;;0.52;62.96;92891.47;5009265;28;20196;-80
2022/01/21 11:36:25;;;;;;;12.60;11.77;;;;;;;0.88;62.77;92917.22;5008960;28;20196;-80
2022/01/21 11:38:55;;;;;;;13.00;11.90;;;;;;;0.79;64.87;92928.00;5011089;28;20242;-81
2022/01/21 11:41:26;;;;;;;13.27;12.17;;;;;;;1.15;63.79;92938.31;5010043;28;20188;-81
2022/01/21 11:43:58;;;;;;;13.40;12.37;;;;;;;0.96;64.92;92909.25;5008022;28;20192;-84
2022/01/21 11:49:04;;;;;;;14.53;13.63;;;;;;;0.60;64.23;92909.19;5009583;28;20822;-81
2022/01/21 11:51:37;;;;;;;11.60;11.00;;;;;;;0.49;63.47;92932.97;5008250;28;20227;-82
2022/01/21 11:54:17;;;;;;;11.13;10.43;;;;;;;2.29;80.15;92937.25;5010789;28;20250;-83
2022/01/21 11:57:01;;;;;;;11.03;10.33;;;;;;;1.28;64.69;92938.94;5008914;28;20257;-81
2022/01/21 12:02:00;;;;;;;11.83;11.03;;;;;;;0.85;64.59;92927.13;5010048;28;20243;-86
2022/01/21 12:04:31;;;;;;;13.27;12.03;;;;;;;1.20;64.96;92925.56;5008781;28;20223;-88
2022/01/21 12:07:01;;;;;;;14.17;12.87;;;;;;;1.38;64.20;92930.75;5008561;28;20223;-78
2022/01/21 12:09:55;;;;;;;12.47;11.87;;;;;;;0.13;61.37;92932.84;5008608;28;20271;-77
2022/01/21 12:12:23;;;;;;;12.90;12.00;;;;;;;-0.09;62.68;92904.16;5008372;28;20227;-77
2022/01/21 12:14:55;;;;;;;11.87;10.97;;;;;;;0.16;62.42;92927.28;5006274;28;20192;-78
2022/01/21 12:17:43;;;;;;;13.77;12.87;;;;;;;-0.03;62.70;92928.19;5006919;28;20234;-79
2022/01/21 12:20:09;;;;;;;13.20;12.20;;;;;;;-0.20;66.28;92917.66;5008640;28;20211;-89
2022/01/21 12:22:35;;;;;;;11.53;10.83;;;;;;;-0.15;68.24;92924.72;5009271;28;20320;-82
2022/01/21 12:25:06;;;;;;;12.93;12.00;;;;;;;-0.05;65.32;92927.66;5007535;28;20183;-82
2022/01/21 12:27:33;;;;;;;11.50;10.70;;;;;;;-0.20;65.54;92927.13;5008013;28;20355;-82
2022/01/21 12:30:23;;;;;;;13.50;12.53;;;;;;;0.13;65.99;92927.72;5008852;28;20254;-89
2022/01/21 12:33:00;;;;;;;13.47;12.47;;;;;;;0.36;65.96;92915.09;5009437;28;20246;-88
2022/01/21 12:35:27;;;;;;;14.53;13.23;;;;;;;0.48;65.65;92916.00;5008780;28;20187;-84
2022/01/21 12:40:57;;;;;;;13.93;12.73;;;;;;;0.79;64.22;92908.22;5008763;28;20249;-81
2022/01/21 12:43:58;;;;;;;14.37;13.17;;;;;;;0.74;64.96;92904.69;5007099;28;20230;-83
2022/01/21 12:46:23;;;;;;;11.07;10.47;;;;;;;0.54;64.65;92894.63;5007029;28;20266;-86
2022/01/21 12:48:50;;;;;;;12.03;11.30;;;;;;;0.66;62.29;92899.84;5009180;28;20199;-80
2022/01/21 12:51:32;;;;;;;11.73;10.87;;;;;;;0.46;62.35;92900.03;5007712;28;20183;-86
2022/01/21 12:56:57;;;;;;;14.57;13.33;;;;;;;0.29;62.85;92872.50;5007311;28;20238;-84
2022/01/21 12:59:28;;;;;;;12.47;11.67;;;;;;;0.35;63.68;92903.28;5008782;28;20255;-84
2022/01/21 13:01:56;;;;;;;13.70;12.60;;;;;;;0.53;64.06;92900.72;5008607;28;20699;-86
2022/01/21 13:04:35;;;;;;;11.90;11.17;;;;;;;0.24;63.70;92888.53;5008666;28;20203;-87
2022/01/21 13:07:16;;;;;;;15.57;14.27;;;;;;;0.29;64.84;92896.41;5005497;28;20246;-82
2022/01/21 13:09:51;;;;;;;12.07;11.17;;;;;;;0.48;63.18;92898.03;5008174;28;20198;-84
2022/01/21 13:12:20;;;;;;;12.67;11.77;;;;;;;0.54;60.79;92901.53;5007626;28;20230;-83
2022/01/21 13:14:55;;;;;;;12.43;11.70;;;;;;;0.73;63.79;92914.19;5006295;28;20187;-84
2022/01/21 13:17:21;;;;;;;14.53;13.30;;;;;;;0.70;62.45;92919.75;5008754;28;20234;-85
2022/01/21 13:19:55;;;;;;;13.10;12.10;;;;;;;0.79;64.79;92903.09;5008078;28;21416;-88
2022/01/21 13:22:25;;;;;;;14.37;13.20;;;;;;;0.28;63.01;92902.53;5007224;28;20230;-89
2022/01/21 13:25:08;;;;;;;13.47;12.33;;;;;;;0.25;63.99;92884.97;5009435;28;20199;-88
2022/01/21 13:27:42;;;;;;;11.63;10.73;;;;;;;-0.04;63.24;92890.72;5007648;28;20837;-84
2022/01/21 13:30:11;;;;;;;13.70;12.80;;;;;;;0.10;63.84;92891.41;5008650;28;20201;-81
2022/01/21 13:32:37;;;;;;;10.70;10.10;;;;;;;-0.18;63.73;92897.72;5007793;28;20623;-84
2022/01/21 13:35:25;;;;;;;12.27;11.47;;;;;;;-0.12;63.51;92909.72;5009451;28;20215;-92
2022/01/21 13:38:25;;;;;;;9.97;9.40;;;;;;;-0.21;62.65;92905.03;5008942;28;20234;-91
2022/01/21 13:40:55;;;;;;;11.37;10.67;;;;;;;-0.09;64.67;92882.84;4940656;29;20280;-82
2022/01/21 13:43:30;;;;;;;10.90;10.00;;;;;;;-0.04;62.78;92924.06;4997421;28;20257;-81
2022/01/21 13:46:05;;;;;;;9.67;9.17;;;;;;;-0.52;56.47;92933.22;5008454;28;20190;-81
2022/01/21 13:48:34;;;;;;;10.53;10.10;;;;;;;-0.63;55.75;92933.84;5008519;28;20241;-82
2022/01/21 13:51:02;;;;;;;10.87;10.27;;;;;;;-0.49;60.76;92932.78;5033395;28;20199;-82
2022/01/21 13:53:28;;;;;;;11.80;11.00;;;;;;;-0.41;61.33;92925.66;5007017;28;20251;-84
2022/01/21 13:55:57;;;;;;;10.43;9.77;;;;;;;-0.29;60.08;92918.91;5009139;28;20990;-84
2022/01/21 13:58:31;;;;;;;10.80;10.10;;;;;;;-0.65;60.13;92920.44;5008754;28;20231;-88
2022/01/21 14:00:56;;;;;;;10.70;10.20;;;;;;;-0.82;57.23;92921.88;5008028;28;20187;-84
2022/01/21 14:03:25;;;;;;;10.23;9.63;;;;;;;-0.95;58.56;92896.31;5006647;28;20958;-86
2022/01/21 14:05:56;;;;;;;9.93;9.20;;;;;;;-0.81;58.21;92918.34;5008520;28;20239;-83
2022/01/21 14:08:36;;;;;;;9.30;8.80;;;;;;;-0.96;57.01;92907.53;5004962;28;20230;-82
2022/01/21 14:11:04;;;;;;;11.00;10.33;;;;;;;-1.30;57.05;92864.28;5006135;28;20870;-76
2022/01/21 14:13:32;;;;;;;11.23;10.33;;;;;;;-1.26;60.08;92868.81;5007258;28;20250;-79
2022/01/21 14:16:01;;;;;;;11.57;10.73;;;;;;;-1.17;56.19;92907.81;5009321;28;20190;-80
2022/01/21 14:18:31;;;;;;;11.43;10.53;;;;;;;-0.98;58.31;92896.72;5007616;28;20298;-85
2022/01/21 14:21:14;;;;;;;11.27;10.80;;;;;;;-1.01;60.96;92903.03;5008416;28;20242;-83
2022/01/21 14:23:41;;;;;;;10.53;9.97;;;;;;;-1.13;58.81;92898.72;5007200;28;20271;-83
2022/01/21 14:26:09;;;;;;;10.97;10.33;;;;;;;-1.13;58.88;92902.06;5007312;28;20270;-80
2022/01/21 14:28:43;;;;;;;12.40;11.60;;;;;;;-1.18;58.66;92893.44;5008080;28;20207;-80
2022/01/21 14:31:39;;;;;;;12.10;11.20;;;;;;;-1.00;58.56;92899.50;5007278;28;20259;-80
2022/01/21 14:34:21;;;;;;;10.83;10.33;;;;;;;-1.49;56.78;92871.03;5007444;28;20204;-80
2022/01/21 14:37:02;;;;;;;10.77;10.00;;;;;;;-1.10;58.63;92898.31;5006223;28;20234;-81
2022/01/21 14:39:32;;;;;;;11.27;10.67;;;;;;;-1.26;62.54;92860.34;5006844;28;20211;-82
2022/01/21 14:41:57;;;;;;;10.73;10.00;;;;;;;-1.35;58.07;92862.34;5007015;28;20227;-80
2022/01/21 14:44:47;;;;;;;10.67;9.97;;;;;;;-1.35;57.04;92869.25;5008956;28;20211;-80
2022/01/21 14:47:18;;;;;;;10.17;9.60;;;;;;;-1.31;58.79;92881.44;5009379;28;20255;-81
2022/01/21 14:49:54;;;;;;;10.07;9.57;;;;;;;-1.73;59.05;92805.91;5009438;28;20195;-79
2022/01/21 14:55:07;;;;;;;11.47;10.47;;;;;;;-1.15;60.62;92880.22;5011712;28;20199;-81
2022/01/21 14:57:34;;;;;;;10.03;9.33;;;;;;;-1.29;58.24;92882.00;5007801;28;20259;-81
2022/01/21 15:00:03;;;;;;;10.70;9.80;;;;;;;-1.34;58.95;92897.22;5011821;28;20202;-83
2022/01/21 15:02:37;;;;;;;10.63;10.00;;;;;;;-1.33;57.71;92893.66;5011122;28;20227;-80
2022/01/21 15:05:05;;;;;;;10.77;10.27;;;;;;;-1.41;57.53;92893.06;5010696;28;20268;-83
2022/01/21 15:07:31;;;;;;;11.13;10.63;;;;;;;-1.65;58.10;92859.44;5009432;28;20915;-83
2022/01/21 15:10:02;;;;;;;11.50;10.80;;;;;;;-1.65;57.18;92874.03;5011055;28;20191;-84
2022/01/21 15:15:35;;;;;;;11.00;10.20;;;;;;;-1.29;60.37;92888.94;5010383;28;20217;-80
2022/01/21 15:18:03;;;;;;;10.70;10.10;;;;;;;-1.44;58.78;92893.47;5009412;28;20223;-79
2022/01/21 15:20:38;;;;;;;10.80;9.83;;;;;;;-1.63;57.17;92889.19;5011782;28;20198;-79
2022/01/21 15:23:06;;;;;;;11.43;10.40;;;;;;;-1.71;58.61;92893.50;5010530;28;20297;-82
2022/01/21 15:25:33;;;;;;;11.10;10.70;;;;;;;-1.80;57.75;92883.66;5009206;28;20195;-81
2022/01/21 15:27:59;;;;;;;11.90;11.10;;;;;;;-1.64;60.19;92898.63;5010331;28;20266;-84
2022/01/21 15:30:26;;;;;;;11.73;11.13;;;;;;;-1.72;60.48;92898.81;5010997;28;20247;-79
2022/01/21 15:32:54;;;;;;;11.77;10.87;;;;;;;-1.77;58.82;92898.63;5009640;28;20226;-79
2022/01/21 15:35:20;;;;;;;12.40;11.60;;;;;;;-1.65;61.74;92889.38;5011552;28;20195;-90
2022/01/21 15:37:46;;;;;;;9.40;9.00;;;;;;;-1.54;59.05;92898.22;5011458;28;20334;-85
2022/01/21 15:40:13;;;;;;;11.67;11.10;;;;;;;-1.62;58.74;92899.97;5010691;28;20187;-88
2022/01/21 15:42:41;;;;;;;11.57;10.90;;;;;;;-1.84;60.17;92908.84;5009438;28;20227;-79
2022/01/21 15:45:08;;;;;;;10.37;9.87;;;;;;;-2.03;59.90;92891.75;5009704;28;20211;-78
2022/01/21 15:47:34;;;;;;;10.47;9.87;;;;;;;-2.03;60.96;92901.19;5009126;28;20223;-77
2022/01/21 15:49:59;;;;;;;10.70;10.00;;;;;;;-2.04;61.07;92889.38;5010237;28;20196;-80
2022/01/21 15:52:25;;;;;;;12.03;11.33;;;;;;;-1.90;61.63;92912.19;5008600;28;20223;-79
2022/01/21 15:54:52;;;;;;;11.90;11.30;;;;;;;-2.08;64.37;92927.34;5009424;28;20183;-79
2022/01/21 15:57:17;;;;;;;11.17;10.57;;;;;;;-2.15;65.32;92911.19;5010109;28;20235;-78
2022/01/21 15:59:43;;;;;;;14.83;12.60;;;;;;;-2.28;66.46;92908.63;5011134;28;20202;-78
2022/01/21 16:02:08;;;;;;;14.30;13.20;;;;;;;-2.00;67.66;92927.16;5009602;28;20219;-78
2022/01/21 16:04:35;;;;;;;14.47;12.60;;;;;;;-2.20;68.25;92926.34;5010011;28;20274;-77
2022/01/21 16:07:00;;;;;;;13.57;12.37;;;;;;;-2.36;69.66;92928.44;5011205;28;20254;-79
2022/01/21 16:09:26;;;;;;;12.80;11.60;;;;;;;-2.68;71.86;92922.28;5010724;28;20247;-79
2022/01/21 16:11:52;;;;;;;13.53;12.20;;;;;;;-2.74;73.34;92910.25;5010150;28;20323;-79
2022/01/21 16:14:19;;;;;;;16.47;14.03;;;;;;;-2.59;72.75;92921.13;5009752;28;20629;-80
2022/01/21 16:16:45;;;;;;;15.17;13.67;;;;;;;-2.72;73.71;92905.75;5009205;28;20227;-80
2022/01/21 16:19:15;;;;;;;18.97;15.43;;;;;;;-2.79;73.56;92876.84;5009706;28;20211;-79
2022/01/21 16:21:43;;;;;;;16.87;15.23;;;;;;;-2.54;73.93;92898.34;5008239;28;20246;-78
2022/01/21 16:24:09;;;;;;;16.90;15.07;;;;;;;-2.67;74.39;92916.19;5009091;28;20218;-78
2022/01/21 16:26:36;;;;;;;21.27;16.43;;;;;;;-2.85;74.49;92890.41;5008101;28;20239;-81
2022/01/21 16:29:02;;;;;;;24.20;15.77;;;;;;;-2.74;74.48;92917.91;5008361;28;20219;-80
2022/01/21 16:31:30;;;;;;;23.00;16.90;;;;;;;-2.56;74.04;92933.53;5009371;28;20230;-85
2022/01/21 16:33:55;;;;;;;23.37;17.77;;;;;;;-2.53;75.67;92915.25;5008744;28;20199;-86
2022/01/21 16:36:21;;;;;;;17.03;15.20;;;;;;;-2.46;74.22;92905.81;5008264;28;20190;-88
2022/01/21 16:38:48;;;;;;;18.97;14.60;;;;;;;-2.69;70.84;92877.25;5009182;28;20211;-87
2022/01/21 16:41:15;;;;;;;20.53;16.17;;;;;;;-2.81;69.22;92845.59;5007098;28;20215;-86
2022/01/21 16:43:41;;;;;;;16.73;15.10;;;;;;;-2.58;69.70;92906.56;5010068;28;20183;-91
2022/01/21 16:46:06;;;;;;;24.30;18.17;;;;;;;-2.57;69.39;92943.94;5008421;28;20203;-82
2022/01/21 16:48:32;;;;;;;17.33;15.33;;;;;;;-2.47;68.67;92937.47;5006635;28;20187;-90
2022/01/21 16:50:58;;;;;;;15.50;13.53;;;;;;;-2.45;69.21;92953.41;5008600;28;20191;-82
2022/01/21 16:53:25;;;;;;;15.53;14.00;;;;;;;-2.59;70.32;92956.91;5007631;28;20230;-83
2022/01/21 16:55:51;;;;;;;14.73;13.30;;;;;;;-2.53;70.32;92938.25;5006740;28;20267;-81
2022/01/21 16:58:17;;;;;;;12.77;11.77;;;;;;;-2.58;70.07;92953.34;5008976;28;20231;-85
2022/01/21 17:00:42;;;;;;;15.40;12.87;;;;;;;-2.62;70.47;92957.28;5007433;28;20223;-85
2022/01/21 17:03:08;;;;;;;15.73;14.13;;;;;;;-2.31;69.75;92961.91;5009279;28;20342;-82
2022/01/21 17:05:35;;;;;;;19.27;14.30;;;;;;;-2.42;71.09;92958.13;5008597;28;20191;-86
2022/01/21 17:08:02;;;;;;;17.13;15.40;;;;;;;-2.65;71.30;92931.31;5008088;28;20736;-86
2022/01/21 17:10:27;;;;;;;15.70;14.63;;;;;;;-2.84;70.28;92919.25;5008629;28;20254;-87
2022/01/21 17:12:54;;;;;;;15.93;14.50;;;;;;;-2.49;71.62;92962.44;5007188;28;20315;-80
2022/01/21 17:15:19;;;;;;;18.60;14.97;;;;;;;-2.72;72.34;92951.72;5008783;28;20192;-81
2022/01/21 17:17:45;;;;;;;15.53;14.23;;;;;;;-3.00;74.07;92927.25;5007881;28;20254;-79
2022/01/21 17:20:11;;;;;;;14.23;13.07;;;;;;;-2.85;75.24;92945.78;5009473;28;20259;-78
2022/01/21 17:22:38;;;;;;;14.93;13.83;;;;;;;-2.74;75.35;92947.81;5007646;28;20249;-77
2022/01/21 17:25:06;;;;;;;16.97;15.50;;;;;;;-2.88;75.68;92953.84;5009203;28;20190;-79
2022/01/21 17:27:31;;;;;;;15.77;14.27;;;;;;;-2.72;75.56;92949.19;5007935;28;20286;-77
2022/01/21 17:29:58;;;;;;;15.70;14.20;;;;;;;-2.58;72.58;92968.69;5008537;28;20191;-80
2022/01/21 17:32:24;;;;;;;15.10;13.60;;;;;;;-2.65;73.46;92942.34;5008711;28;20230;-78
2022/01/21 17:34:56;;;;;;;13.87;12.73;;;;;;;-2.41;72.17;92959.69;5007501;28;20199;-76
2022/01/21 17:37:25;;;;;;;13.77;12.60;;;;;;;-2.48;70.54;92933.34;5008138;28;20242;-79
2022/01/21 17:39:50;;;;;;;13.90;12.63;;;;;;;-2.42;71.24;92942.81;5009123;28;20203;-79
2022/01/21 17:42:16;;;;;;;15.33;14.07;;;;;;;-2.85;67.58;92923.59;5007964;28;20238;-82
2022/01/21 17:44:42;;;;;;;13.03;12.20;;;;;;;-3.07;67.44;92909.34;5009220;28;20230;-83
2022/01/21 17:47:08;;;;;;;12.80;11.90;;;;;;;-2.85;67.21;92967.03;5008334;28;20233;-82
2022/01/21 17:49:35;;;;;;;13.87;11.73;;;;;;;-2.99;68.85;92965.38;5008288;28;20267;-82
2022/01/21 17:52:01;;;;;;;15.20;14.10;;;;;;;-2.90;67.28;92974.44;5007749;28;20228;-80
2022/01/21 17:54:27;;;;;;;12.13;11.37;;;;;;;-3.16;68.45;92937.78;5007192;28;20253;-78
2022/01/21 17:56:52;;;;;;;11.30;10.50;;;;;;;-3.11;69.61;92977.06;5006521;28;20262;-76
2022/01/21 17:59:18;;;;;;;12.50;11.53;;;;;;;-3.18;67.55;92965.25;5007659;28;20194;-80
2022/01/21 18:01:44;;;;;;;12.33;11.53;;;;;;;-3.31;68.79;92976.16;5007272;28;20219;-82
2022/01/21 18:04:10;;;;;;;13.57;12.43;;;;;;;-3.51;68.50;92937.78;5006415;28;20198;-80
2022/01/21 18:06:36;;;;;;;12.43;11.57;;;;;;;-3.24;68.16;92973.66;5007616;28;20219;-81
2022/01/21 18:09:10;;;;;;;12.80;11.80;;;;;;;-3.62;67.71;92933.19;5007357;28;20199;-77
2022/01/21 18:11:36;;;;;;;12.17;11.23;;;;;;;-3.62;70.39;92943.38;5006506;28;20255;-78
2022/01/21 18:14:02;;;;;;;13.93;13.13;;;;;;;-3.40;67.28;92977.28;5006984;28;20202;-85
2022/01/21 18:16:28;;;;;;;14.00;13.10;;;;;;;-3.52;65.78;92971.13;5006315;28;20231;-83
2022/01/21 18:18:54;;;;;;;12.70;11.70;;;;;;;-3.54;68.02;92978.16;5008214;28;20789;-83
2022/01/21 18:21:21;;;;;;;10.00;9.53;;;;;;;-3.77;66.29;92959.75;5009957;28;20191;-83
2022/01/21 18:23:47;;;;;;;12.17;11.57;;;;;;;-3.46;64.87;92993.34;5011611;28;20283;-85
2022/01/21 18:26:13;;;;;;;11.67;10.87;;;;;;;-3.57;67.98;93006.59;5011496;28;20200;-78
2022/01/21 18:28:39;;;;;;;11.10;10.40;;;;;;;-3.52;66.44;93004.28;5012299;28;20187;-79
2022/01/21 18:31:05;;;;;;;11.67;10.80;;;;;;;-3.59;68.10;93008.53;5011924;28;20198;-84
2022/01/21 18:33:32;;;;;;;12.37;11.37;;;;;;;-3.45;66.71;93010.22;5010193;28;20211;-75
2022/01/21 18:36:00;;;;;;;13.63;12.77;;;;;;;-3.60;65.95;93010.31;5012177;28;20191;-81
2022/01/21 18:38:28;;;;;;;12.43;11.43;;;;;;;-3.74;66.41;92970.38;5010940;28;20239;-81
2022/01/21 18:40:55;;;;;;;12.83;11.73;;;;;;;-3.66;66.97;92965.13;5011137;28;20195;-78
2022/01/21 18:43:24;;;;;;;12.00;11.10;;;;;;;-3.55;67.46;92987.56;5009265;28;20227;-78
2022/01/21 18:46:04;;;;;;;11.70;11.03;;;;;;;-3.63;65.40;92981.84;5010574;28;20191;-80
2022/01/21 18:48:31;;;;;;;13.43;12.17;;;;;;;-3.75;63.51;92957.81;5010945;28;20239;-81
2022/01/21 18:51:00;;;;;;;10.07;9.47;;;;;;;-3.84;64.96;92969.88;5012297;28;20213;-80
2022/01/21 18:53:27;;;;;;;13.00;12.10;;;;;;;-3.84;65.11;92974.19;5011930;28;20219;-86
2022/01/21 18:55:53;;;;;;;12.13;11.33;;;;;;;-3.93;64.71;92957.44;5012709;28;20193;-85
2022/01/21 18:58:19;;;;;;;12.17;11.17;;;;;;;-3.95;64.28;92997.63;5009211;28;20710;-85
2022/01/21 19:00:45;;;;;;;12.93;12.00;;;;;;;-4.23;64.08;92978.91;5012554;28;20191;-82
2022/01/21 19:03:13;;;;;;;14.80;12.00;;;;;;;-4.12;65.31;93007.28;5010697;28;20255;-82
2022/01/21 19:05:39;;;;;;;12.00;10.87;;;;;;;-4.36;66.56;92968.59;5010979;28;20307;-77
2022/01/21 19:08:05;;;;;;;11.80;10.80;;;;;;;-4.23;66.80;93012.03;5010674;28;20235;-86
2022/01/21 19:10:31;;;;;;;12.30;11.30;;;;;;;-4.55;66.72;92984.47;5009840;28;20193;-83
2022/01/21 19:12:58;;;;;;;11.30;10.67;;;;;;;-4.29;65.61;93007.66;5010826;28;20235;-80
2022/01/21 19:15:24;;;;;;;11.60;10.77;;;;;;;-4.28;65.17;93006.72;5009276;28;20215;-81
2022/01/21 19:17:50;;;;;;;13.00;12.17;;;;;;;-4.12;64.14;93014.91;5010932;28;20223;-84
2022/01/21 19:20:18;;;;;;;13.27;12.03;;;;;;;-4.40;64.38;92993.66;5011996;28;20230;-82
2022/01/21 19:22:47;;;;;;;13.93;12.63;;;;;;;-4.40;64.21;92972.47;5010054;28;20219;-81
2022/01/21 19:25:18;;;;;;;12.60;11.57;;;;;;;-4.21;65.13;93007.56;5010184;28;20222;-81
2022/01/21 19:27:44;;;;;;;12.30;11.50;;;;;;;-4.26;64.61;93005.56;5009173;28;20306;-82
2022/01/21 19:30:15;;;;;;;13.30;12.50;;;;;;;-4.29;63.66;93000.81;5011869;28;20175;-82
2022/01/21 19:32:41;;;;;;;11.70;10.90;;;;;;;-4.34;64.33;92985.28;5010504;28;20223;-79
2022/01/21 19:35:09;;;;;;;12.87;11.87;;;;;;;-4.31;64.51;93017.28;5012497;28;20275;-79
2022/01/21 19:37:36;;;;;;;12.10;11.33;;;;;;;-4.53;66.33;92983.34;5007794;28;20307;-81
2022/01/21 19:40:03;;;;;;;12.40;11.30;;;;;;;-4.25;66.50;92991.06;5010203;28;20232;-82
2022/01/21 19:42:28;;;;;;;11.97;11.03;;;;;;;-4.37;65.99;93002.72;5011646;28;20223;-82
2022/01/21 19:44:58;;;;;;;12.03;11.07;;;;;;;-4.45;65.34;92995.16;5010316;28;20195;-83
2022/01/21 19:48:02;;;;;;;11.93;11.13;;;;;;;-4.71;67.44;92989.75;5010303;28;20254;-81
2022/01/21 19:50:22;;;;;;;12.50;11.60;;;;;;;-4.54;65.54;93019.16;5009086;28;20206;-81
2022/01/21 19:52:47;;;;;;;12.40;11.60;;;;;;;-4.55;64.13;93013.28;5009843;28;20298;-80
2022/01/21 19:55:15;;;;;;;12.60;11.80;;;;;;;-5.02;62.21;92957.69;5010363;28;20202;-82
2022/01/21 19:57:42;;;;;;;13.07;11.90;;;;;;;-4.74;64.49;93013.81;5010490;28;20254;-81
2022/01/21 20:13:40;;;;;;;11.57;10.90;;;;;;;-5.09;60.27;93017.88;5007859;28;20230;-82
2022/01/21 20:16:06;;;;;;;12.50;11.90;;;;;;;-4.98;61.03;93019.97;5005407;28;20200;-80
2022/01/21 20:18:32;;;;;;;13.43;12.50;;;;;;;-4.93;57.86;93032.97;5008684;28;20231;-84
2022/01/21 20:20:58;;;;;;;10.87;10.17;;;;;;;-5.02;60.70;93031.50;5009477;28;20222;-83
2022/01/21 20:23:23;;;;;;;9.77;9.27;;;;;;;-4.98;59.14;93034.47;5008559;28;20683;-84
2022/01/21 20:25:49;;;;;;;10.57;9.87;;;;;;;-5.27;59.07;92986.09;5009242;28;20199;-85
2022/01/21 20:28:14;;;;;;;11.47;10.93;;;;;;;-5.10;58.85;93023.94;5008432;28;20242;-88
2022/01/21 20:30:40;;;;;;;9.07;8.77;;;;;;;-5.12;60.07;93018.22;5009952;28;20231;-84
2022/01/21 20:33:05;;;;;;;10.43;9.93;;;;;;;-5.18;58.69;93024.00;5009619;28;20225;-83
2022/01/21 20:35:33;;;;;;;9.00;8.70;;;;;;;-5.22;61.89;93012.63;5010290;28;20211;-83
2022/01/21 20:37:59;;;;;;;12.30;11.50;;;;;;;-5.40;57.97;92989.25;5009589;28;20235;-83
2022/01/21 20:42:51;;;;;;;10.20;9.70;;;;;;;-5.09;59.47;93043.31;5004554;28;20228;-85
2022/01/21 20:45:17;;;;;;;10.20;9.80;;;;;;;-5.09;58.06;93012.78;5006761;28;20255;-86
2022/01/21 20:47:43;;;;;;;10.93;10.30;;;;;;;-5.03;58.82;93034.22;5007325;28;20223;-84
2022/01/21 20:50:10;;;;;;;12.53;11.67;;;;;;;-5.30;61.46;92999.97;5006863;28;20215;-85
2022/01/21 20:52:37;;;;;;;10.27;9.87;;;;;;;-5.30;59.05;93002.50;5006457;28;20291;-84
2022/01/21 20:55:06;;;;;;;10.60;9.87;;;;;;;-6.15;60.02;92880.25;5007490;28;20199;-85
2022/01/21 20:57:35;;;;;;;10.33;9.73;;;;;;;-5.17;61.50;93040.84;5007558;28;20231;-83
2022/01/21 21:00:03;;;;;;;11.33;10.87;;;;;;;-4.93;63.44;93032.97;5008379;28;20594;-86
2022/01/21 21:02:28;;;;;;;11.50;11.00;;;;;;;-4.82;61.84;93043.69;5004143;28;20246;-85
2022/01/21 21:04:54;;;;;;;13.37;12.43;;;;;;;-4.89;60.51;93042.81;5007667;28;20200;-83
2022/01/21 21:07:19;;;;;;;13.43;12.60;;;;;;;-5.43;61.04;92966.72;5007389;28;20239;-85
2022/01/21 21:09:45;;;;;;;11.90;11.30;;;;;;;-5.11;61.18;93037.63;5009376;28;20231;-85
2022/01/21 21:12:13;;;;;;;11.73;10.93;;;;;;;-5.15;61.83;93041.47;5007864;28;20235;-83
2022/01/21 21:14:50;;;;;;;12.17;11.47;;;;;;;-5.15;62.18;93044.03;5008132;28;20206;-83
2022/01/21 21:17:45;;;;;;;12.97;11.97;;;;;;;-5.35;61.49;92998.91;5006814;28;20294;-85
2022/01/21 21:25:37;;;;;;;11.47;10.97;;;;;;;-5.21;61.64;93059.19;5009839;28;20602;-83
2022/01/21 21:28:16;;;;;;;12.90;12.03;;;;;;;-5.30;61.17;93038.13;5006662;28;20249;-84
2022/01/21 23:02:11;;;;;;;13.53;12.63;;;;;;;-5.19;63.09;93012.25;5009037;28;20305;-81
2022/01/21 23:04:37;;;;;;;11.33;10.57;;;;;;;-5.35;63.94;92986.97;5009820;28;20196;-80
2022/01/21 23:07:04;;;;;;;10.97;10.17;;;;;;;-5.25;63.48;92995.16;5013221;28;20698;-82
2022/01/21 23:09:30;;;;;;;12.63;11.43;;;;;;;-5.11;63.25;93011.38;5012776;28;20247;-82
2022/01/21 23:11:55;;;;;;;10.83;10.17;;;;;;;-5.25;63.38;93000.25;5012011;28;20223;-82
2022/01/21 23:14:22;;;;;;;12.30;11.17;;;;;;;-5.10;63.66;93005.31;5011265;28;20179;-81
2022/01/21 23:16:51;;;;;;;12.23;11.13;;;;;;;-5.13;64.01;93005.66;5013263;28;20235;-82
2022/01/21 23:19:17;;;;;;;10.70;9.90;;;;;;;-5.11;65.35;92994.38;5011893;28;20215;-81
2022/01/21 23:21:42;;;;;;;11.93;11.23;;;;;;;-5.16;65.46;92985.66;5012691;28;20848;-81
2022/01/21 23:24:10;;;;;;;11.00;10.23;;;;;;;-5.06;64.88;93002.25;5012878;28;20213;-83
2022/01/21 23:26:37;;;;;;;10.50;9.93;;;;;;;-5.02;63.71;92990.78;5012516;28;20238;-80
2022/01/21 23:31:32;;;;;;;10.83;10.10;;;;;;;-5.02;64.98;92988.22;5012108;28;20876;-80
2022/01/21 23:34:01;;;;;;;10.30;9.70;;;;;;;-5.10;65.10;92960.31;5013388;28;20206;-80
2022/01/21 23:36:34;;;;;;;12.00;11.27;;;;;;;-5.16;65.66;92952.59;5011563;28;20241;-79
2022/01/21 23:41:34;;;;;;;12.60;12.00;;;;;;;-5.22;67.23;92923.56;5013402;28;20287;-78
2022/01/21 23:44:00;;;;;;;11.67;10.97;;;;;;;-5.19;65.63;92951.22;5012132;28;20202;-78